National Weather Service United States Department of Commerce
News Headlines
Click Here for Latest Airport Weather Warnings
 
Latest Huntsville TAF


824
FTUS44 KHUN 171354 AAA
TAFHSV
TAF AMD
KHSV 171354Z 1714/1812 18007KT P6SM VCSH BKN015 OVC050
FM171700 19008KT P6SM VCTS OVC040CB
TEMPO 1717/1721 VRB15KT 3SM TSRA OVC025CB
FM180000 20005KT 6SM -SHRA BR BKN050=

Latest Muscle Shoals TAF


823
FTUS44 KHUN 171354 AAA
TAFMSL
TAF AMD
KMSL 171354Z 1714/1812 21007KT P6SM VCSH BKN015 OVC050
FM171700 23008KT P6SM VCTS BKN050CB
TEMPO 1717/1721 VRB15KT 3SM TSRA OVC025CB
FM180000 19005KT 6SM -SHRA BKN060=

 

Back to Main Huntsville Weather Forecast Office Page